Aireys Inlet, Victoria

1:08 PM EST on July 13, 2014 (GMT +1000)
Aireys Inlet Victoria Australia (IVICTORI430) Elev 121 ft | 38.46 °S, 144.11 °E | Change Station

Current weather conditions updated 7 seconds ago

Overcast
Overcast
56.5 °F
Feels Like 56.5 °F
N
1.1
Wind Variable Wind from WNW
Gusts 2.5 mph

Today is forecast to be nearly the same temperature as yesterday.

Today
High -- | Low -- °F
--% Chance of Precip.
Yesterday
High -- | Low -- °F
Precip. -- in
7:38 AM 5:20 PM
Full, 99% visible
Pressure 30.45 in
Visibility 6.2 miles
Clouds Overcast 5200 ft
Dew Point 44 °F
Humidity 64%
Rainfall 0.00 in
Snow Depth Not available.
UV 1.0 out of 12
Pollen Not available.
Air Quality Not available.
Flu Activity Not available.
METAR YMAV 130300Z AUTO 27013KT 9999 // OVC052 12/07 Q1031

More Conditions Fewer Conditions

Pressure 30.45 in
Visibility 6.2 miles
Clouds Overcast 5200 ft
Dew Point 44 °F
Humidity 64%
Rainfall 0.00 in
Snow Depth Not available.
UV 1.0 out of 12
Pollen Not available.
Air Quality Not available.
Flu Activity Not available.
METAR YMAV 130300Z AUTO 27013KT 9999 // OVC052 12/07 Q1031

More Conditions Fewer Conditions

10-Day Weather Forecast

Almanac

Astronomy

Jul. 13, 2014 Rise Set
Actual Time 7:38 AM EST 5:20 PM EST
Civil Twilight 7:09 AM EST 5:49 PM EST
Nautical Twilight 6:36 AM EST 6:22 PM EST
Astronomical Twilight 6:04 AM EST 6:53 PM EST
Moon 6:30 PM EST 7:42 AM EST
Length of Visible Light 10h 39m
Length of Day
9h 41m
Tomorrow will be 1m 7s longer.
Full, 99% of the Moon is Illuminated
Jul 12
Full
Jul 18
Last Quarter
Jul 26
New
Aug 3
First Quarter
Aug 10
Full

Yesterday's Extremes

Country Highs Country Lows

Community

WunderPhotos

Upload Photos

1,733,063 photos uploaded!

WunderBlogs® & News

Nearby

Snow Depth

Not available.

Earthquake Activity

City Distance Mag. Time & Date
No recent earthquake activity has been reported nearby.
Minimum magnitude displayed is 2.5.

Coastal Water Temperatures

Place Temperature
No Stations Reporting

Nearby Weather Stations

Station Location Temp. Dew Point Humidity Wind Precip. Elev Updated Type
Aireys Inlet Victoria Australia, Aireys Inlet 56.5 °F 44 °F 64% WNW  at  1.1 mph 0.00 in / hr 121 ft 1:08 PM EST Rapid Fire
Lorne 55.7 °F 46 °F 70% North  at  0.0 mph 0.00 in / hr 36 ft 12:55 PM EST Normal
Lorne 55.6 °F 45 °F 68% ENE  at  0.0 mph 0.00 in / hr 295 ft 12:56 PM EST Normal
Moriac 53.1 °F 48 °F 82% SW  at  10.0 mph 0.00 in / hr 338 ft 1:08 PM EST Rapid Fire
Thomson, Geelong, Thomson 57.0 °F 46 °F 66% WSW  at  3.1 mph 0.00 in / hr 66 ft 1:08 PM EST Rapid Fire
Geelong, Herne Hill 57.2 °F 45 °F 63% West  at  7.6 mph 0.00 in / hr 190 ft 1:08 PM EST Rapid Fire

Show More Stations Show Fewer Stations